createdAt,value
2022-10-04T00:01:45.794Z,2.00
2022-10-04T00:04:15.143Z,3.00
2022-10-04T00:06:45.036Z,3.40
2022-10-04T00:09:14.466Z,3.80
2022-10-04T00:11:45.178Z,3.00
2022-10-04T00:14:20.948Z,2.00
2022-10-04T00:16:48.938Z,3.50
2022-10-04T00:19:38.017Z,2.00
2022-10-04T00:22:17.492Z,3.00
2022-10-04T00:25:21.220Z,3.80
2022-10-04T00:28:29.571Z,3.00
2022-10-04T00:31:29.271Z,4.00
2022-10-04T00:33:59.827Z,4.00
2022-10-04T00:36:49.692Z,4.60
2022-10-04T00:39:57.327Z,4.00
2022-10-04T00:42:47.544Z,4.00
2022-10-04T00:45:19.874Z,2.75
2022-10-04T00:48:02.464Z,3.00
2022-10-04T00:50:32.565Z,2.00
2022-10-04T00:53:01.250Z,3.60
2022-10-04T00:55:33.317Z,4.40
2022-10-04T00:58:01.955Z,4.00
2022-10-04T01:00:31.477Z,3.60
2022-10-04T01:03:02.246Z,2.00
2022-10-04T01:05:32.543Z,2.00
2022-10-04T01:08:05.747Z,4.00
2022-10-04T01:10:34.970Z,5.00
2022-10-04T01:13:07.393Z,3.00
2022-10-04T01:15:37.978Z,3.00
2022-10-04T01:18:15.802Z,3.40
2022-10-04T01:20:51.735Z,2.80
2022-10-04T01:23:41.725Z,2.00
2022-10-04T01:26:41.429Z,2.40
2022-10-04T01:29:14.970Z,3.00
2022-10-04T01:31:44.488Z,3.80
2022-10-04T01:34:14.347Z,5.00
2022-10-04T01:36:42.332Z,3.00
2022-10-04T01:39:11.739Z,2.00
2022-10-04T01:41:44.645Z,2.00
2022-10-04T01:44:14.303Z,2.60
2022-10-04T01:46:42.332Z,4.00
2022-10-04T01:49:12.198Z,2.60
2022-10-04T01:51:46.602Z,2.20
2022-10-04T01:54:18.163Z,2.00
2022-10-04T01:56:48.794Z,3.00
2022-10-04T01:59:18.928Z,3.60
2022-10-04T02:01:49.115Z,2.00
2022-10-04T02:04:22.091Z,3.00
2022-10-04T02:06:54.480Z,1.60
2022-10-04T02:09:25.577Z,3.00
2022-10-04T02:11:54.204Z,3.00
2022-10-04T02:14:23.849Z,3.00
2022-10-04T02:16:53.836Z,2.00
2022-10-04T02:19:22.886Z,1.40
2022-10-04T02:21:50.872Z,7.60
2022-10-04T02:24:18.943Z,2.60
2022-10-04T02:26:52.000Z,3.00
2022-10-04T02:29:20.259Z,3.00
2022-10-04T02:32:05.853Z,4.00
2022-10-04T02:34:34.248Z,3.00
2022-10-04T02:37:04.116Z,2.40
2022-10-04T02:39:33.412Z,4.00
2022-10-04T02:42:04.709Z,3.00
2022-10-04T02:44:34.611Z,3.00
2022-10-04T02:47:07.680Z,3.00
2022-10-04T02:49:38.096Z,2.00
2022-10-04T02:52:07.975Z,4.00
2022-10-04T02:54:38.181Z,1.80
2022-10-04T02:57:14.310Z,3.75
2022-10-04T02:59:42.281Z,2.20
2022-10-04T03:02:28.980Z,3.80
2022-10-04T03:05:00.354Z,4.50
2022-10-04T03:07:28.353Z,5.00
2022-10-04T03:09:56.340Z,3.00
2022-10-04T03:12:25.679Z,2.40
2022-10-04T03:14:54.009Z,2.00
2022-10-04T03:17:21.995Z,2.60
2022-10-04T03:19:50.160Z,3.00
2022-10-04T03:22:18.447Z,3.00
2022-10-04T03:24:47.731Z,3.00
2022-10-04T03:27:16.845Z,3.40
2022-10-04T03:29:46.160Z,2.25
2022-10-04T03:32:15.226Z,2.00
2022-10-04T03:34:44.164Z,2.00
2022-10-04T03:37:16.251Z,2.00
2022-10-04T03:39:45.372Z,3.00
2022-10-04T03:42:14.713Z,2.80
2022-10-04T03:44:42.949Z,3.00
2022-10-04T03:47:12.719Z,2.00
2022-10-04T03:49:40.685Z,2.00
2022-10-04T03:52:08.821Z,3.00
2022-10-04T03:54:36.793Z,2.00
2022-10-04T03:57:04.941Z,2.00
2022-10-04T03:59:32.916Z,2.25
2022-10-04T04:02:06.748Z,5.00
2022-10-04T04:04:42.122Z,4.75
2022-10-04T04:07:13.331Z,2.00
2022-10-04T04:09:44.543Z,1.75
2022-10-04T04:12:14.865Z,3.60
2022-10-04T04:14:42.828Z,1.60
2022-10-04T04:17:50.371Z,3.40
2022-10-04T04:20:25.290Z,3.00
2022-10-04T04:23:02.265Z,1.00
2022-10-04T04:25:32.461Z,3.00
2022-10-04T04:28:06.844Z,2.00
2022-10-04T04:30:34.865Z,5.00
2022-10-04T04:33:10.260Z,3.50
2022-10-04T04:35:39.602Z,3.00
2022-10-04T04:38:17.983Z,4.00
2022-10-04T04:40:45.972Z,12.20
2022-10-04T04:43:16.074Z,33.50
2022-10-04T04:45:44.449Z,16.00
2022-10-04T04:48:13.701Z,7.75
2022-10-04T04:50:43.014Z,4.00
2022-10-04T04:53:13.834Z,4.60
2022-10-04T04:56:02.443Z,6.00
2022-10-04T04:58:33.184Z,5.00
2022-10-04T05:01:02.690Z,4.80
2022-10-04T05:03:31.274Z,4.00
2022-10-04T05:06:02.950Z,4.00
2022-10-04T05:08:33.371Z,1.00
2022-10-04T05:11:05.969Z,1.00
2022-10-04T05:13:36.546Z,4.00
2022-10-04T05:16:04.573Z,4.00
2022-10-04T05:18:33.300Z,3.00
2022-10-04T05:21:07.004Z,3.80
2022-10-04T05:23:35.504Z,4.75
2022-10-04T05:26:04.298Z,2.00
2022-10-04T05:28:32.514Z,2.00
2022-10-04T05:31:27.423Z,3.00
2022-10-04T05:33:57.224Z,3.00
2022-10-04T05:36:46.211Z,3.00
2022-10-04T05:39:18.825Z,4.00
2022-10-04T05:41:49.586Z,3.00
2022-10-04T05:44:26.839Z,4.00
2022-10-04T05:46:55.957Z,4.25
2022-10-04T05:49:24.163Z,4.00
2022-10-04T05:51:55.294Z,4.00
2022-10-04T05:54:24.559Z,3.40
2022-10-04T05:57:31.852Z,2.80
2022-10-04T06:00:09.996Z,5.00
2022-10-04T06:03:14.605Z,3.00
2022-10-04T06:05:51.022Z,3.00
2022-10-04T06:08:29.524Z,4.00
2022-10-04T06:11:03.724Z,3.00
2022-10-04T06:13:52.609Z,3.00
2022-10-04T06:16:23.869Z,4.00
2022-10-04T06:19:04.705Z,4.00
2022-10-04T06:21:32.997Z,3.00
2022-10-04T06:24:03.686Z,4.00
2022-10-04T06:26:34.342Z,4.00
2022-10-04T06:29:03.919Z,3.00
2022-10-04T06:31:48.630Z,4.00
2022-10-04T06:34:28.557Z,4.00
2022-10-04T06:37:06.827Z,3.00
2022-10-04T06:40:03.271Z,2.25
2022-10-04T06:42:55.098Z,3.00
2022-10-04T06:45:50.238Z,5.00
2022-10-04T06:48:30.705Z,4.40
2022-10-04T06:51:02.904Z,4.00
2022-10-04T06:53:36.091Z,3.20
2022-10-04T06:56:39.141Z,5.60
2022-10-04T06:59:32.188Z,4.00
2022-10-04T07:02:01.356Z,3.00
2022-10-04T07:04:50.239Z,4.00
2022-10-04T07:07:36.036Z,3.00
2022-10-04T07:10:19.565Z,3.60
2022-10-04T07:12:52.959Z,3.20
2022-10-04T07:15:22.698Z,3.00
2022-10-04T07:17:50.664Z,3.00
2022-10-04T07:20:21.393Z,4.00
2022-10-04T07:22:52.432Z,4.00
2022-10-04T07:25:21.852Z,3.00
2022-10-04T07:28:14.913Z,2.50
2022-10-04T07:30:45.286Z,5.00
2022-10-04T07:33:15.776Z,3.40
2022-10-04T07:35:46.109Z,3.25
2022-10-04T07:38:17.485Z,3.00
2022-10-04T07:41:03.339Z,3.00
2022-10-04T07:43:33.432Z,3.20
2022-10-04T07:46:05.913Z,4.00
2022-10-04T07:48:33.961Z,2.50
2022-10-04T07:51:05.050Z,3.50
2022-10-04T07:53:33.849Z,5.40
2022-10-04T07:56:02.688Z,3.00
2022-10-04T07:58:40.080Z,3.00
2022-10-04T08:01:15.295Z,3.00
2022-10-04T08:04:00.857Z,4.00
2022-10-04T08:06:34.476Z,3.00
2022-10-04T08:09:20.925Z,3.00
2022-10-04T08:11:52.013Z,6.50
2022-10-04T08:14:26.961Z,4.00
2022-10-04T08:17:13.072Z,2.00
2022-10-04T08:19:47.867Z,4.00
2022-10-04T08:22:22.756Z,5.00
2022-10-04T08:24:56.475Z,4.00
2022-10-04T08:27:31.582Z,2.00
2022-10-04T08:30:04.767Z,3.00
2022-10-04T08:33:06.471Z,5.00
2022-10-04T08:35:37.593Z,2.00
2022-10-04T08:38:30.424Z,4.00
2022-10-04T08:41:18.483Z,2.00
2022-10-04T08:44:15.553Z,3.20
2022-10-04T08:47:10.857Z,3.00
2022-10-04T08:49:47.445Z,3.00
2022-10-04T08:52:46.607Z,2.20
2022-10-04T08:55:42.205Z,3.00
2022-10-04T08:58:16.727Z,3.00
2022-10-04T09:00:56.852Z,2.00
2022-10-04T09:04:02.528Z,4.00
2022-10-04T09:06:47.122Z,3.00
2022-10-04T09:09:44.669Z,2.25
2022-10-04T09:12:21.962Z,2.25
2022-10-04T09:15:31.317Z,3.00
2022-10-04T09:18:03.897Z,3.00
2022-10-04T09:20:41.939Z,3.40
2022-10-04T09:23:27.235Z,3.50
2022-10-04T09:26:00.212Z,2.00
2022-10-04T09:28:44.758Z,3.80
2022-10-04T09:31:24.261Z,2.50
2022-10-04T09:33:59.624Z,3.40
2022-10-04T09:36:42.773Z,3.60
2022-10-04T09:39:50.591Z,4.00
2022-10-04T09:42:52.103Z,5.40
2022-10-04T09:45:27.526Z,5.00
2022-10-04T09:48:17.036Z,4.60
2022-10-04T09:51:09.460Z,5.00
2022-10-04T09:53:42.305Z,5.25
2022-10-04T09:57:01.342Z,10.00
2022-10-04T09:59:54.232Z,7.00
2022-10-04T10:02:57.521Z,5.00
2022-10-04T10:05:31.122Z,4.00
2022-10-04T10:08:05.138Z,5.40
2022-10-04T10:10:54.161Z,6.00
2022-10-04T10:13:40.926Z,6.50
2022-10-04T10:16:25.532Z,7.00
2022-10-04T10:19:05.634Z,7.00
2022-10-04T10:21:40.797Z,6.00
2022-10-04T10:24:19.572Z,6.50
2022-10-04T10:27:03.616Z,11.75
2022-10-04T10:30:00.380Z,6.00
2022-10-04T10:32:59.807Z,5.00
2022-10-04T10:35:35.297Z,5.00
2022-10-04T10:38:22.174Z,5.00
2022-10-04T10:41:01.464Z,4.00
2022-10-04T10:43:36.885Z,6.00
2022-10-04T10:46:19.145Z,4.00
2022-10-04T10:49:08.412Z,3.80
2022-10-04T10:51:55.883Z,2.20
2022-10-04T10:54:40.803Z,4.00
2022-10-04T10:57:13.250Z,3.25
2022-10-04T11:00:20.594Z,4.00
2022-10-04T11:03:22.643Z,3.00
2022-10-04T11:06:16.817Z,2.20
2022-10-04T11:09:29.869Z,2.50
2022-10-04T11:12:39.116Z,4.67
2022-10-04T11:15:31.686Z,4.00
2022-10-04T11:18:15.409Z,3.00
2022-10-04T11:21:25.819Z,6.00
2022-10-04T11:24:21.402Z,4.25
2022-10-04T11:27:20.174Z,4.00
2022-10-04T11:30:14.030Z,4.00
2022-10-04T11:33:09.797Z,5.00
2022-10-04T11:36:05.307Z,4.00
2022-10-04T11:38:52.653Z,2.40
2022-10-04T11:41:24.945Z,4.00
2022-10-04T11:44:05.331Z,4.20
2022-10-04T11:46:37.030Z,5.00
2022-10-04T11:49:14.146Z,4.00
2022-10-04T11:52:05.989Z,3.00
2022-10-04T11:54:57.818Z,5.00
2022-10-04T11:57:31.240Z,4.60
2022-10-04T12:00:04.349Z,4.25
2022-10-04T12:03:19.040Z,4.00
2022-10-04T12:06:10.551Z,3.00
2022-10-04T12:08:48.316Z,6.00
2022-10-04T12:12:12.144Z,3.50
2022-10-04T12:14:49.488Z,4.25
2022-10-04T12:17:43.887Z,4.00
2022-10-04T12:20:28.782Z,2.80
2022-10-04T12:23:06.852Z,4.00
2022-10-04T12:25:53.758Z,2.00
2022-10-04T12:28:44.287Z,6.00
2022-10-04T12:31:23.249Z,5.75
2022-10-04T12:34:00.261Z,4.20
2022-10-04T12:36:34.123Z,4.00
2022-10-04T12:39:14.897Z,4.60
2022-10-04T12:41:47.731Z,3.00
2022-10-04T12:44:28.167Z,5.00
2022-10-04T12:47:02.496Z,3.20
2022-10-04T12:49:39.089Z,3.00
2022-10-04T12:52:11.350Z,5.00
2022-10-04T12:54:40.569Z,5.00
2022-10-04T12:57:23.381Z,3.00
2022-10-04T12:59:58.264Z,4.50
2022-10-04T13:02:36.373Z,3.00
2022-10-04T13:05:09.160Z,2.40
2022-10-04T13:07:51.853Z,5.00
2022-10-04T13:10:36.104Z,3.40
2022-10-04T13:13:24.505Z,4.00
2022-10-04T13:18:51.357Z,3.60
2022-10-04T13:21:25.355Z,1.75
2022-10-04T13:23:59.317Z,2.00
2022-10-04T13:26:35.088Z,3.00
2022-10-04T13:29:05.028Z,3.50
2022-10-04T13:31:35.276Z,2.00
2022-10-04T13:34:10.444Z,3.00
2022-10-04T13:36:48.839Z,1.50
2022-10-04T13:39:44.029Z,1.75
2022-10-04T13:42:20.391Z,3.60
2022-10-04T13:45:03.315Z,2.80
2022-10-04T13:47:46.590Z,4.00
2022-10-04T13:50:32.368Z,4.40
2022-10-04T13:53:25.228Z,3.00
2022-10-04T13:56:13.207Z,3.60
2022-10-04T13:58:46.357Z,5.00
2022-10-04T14:01:38.753Z,3.00
2022-10-04T14:04:26.088Z,3.00
2022-10-04T14:07:19.004Z,3.00
2022-10-04T14:09:57.223Z,3.00
2022-10-04T14:12:53.437Z,5.75
2022-10-04T14:15:39.074Z,3.50
2022-10-04T14:18:50.326Z,4.00
2022-10-04T14:21:47.056Z,3.00
2022-10-04T14:24:47.555Z,3.00
2022-10-04T14:27:37.450Z,7.80
2022-10-04T14:30:17.431Z,3.60
2022-10-04T14:33:00.180Z,6.00
2022-10-04T14:35:29.048Z,6.00
2022-10-04T14:38:13.681Z,6.00
2022-10-04T14:40:46.576Z,4.20
2022-10-04T14:43:44.445Z,4.00
2022-10-04T14:46:17.601Z,3.50
2022-10-04T14:48:53.758Z,3.00
2022-10-04T14:51:36.668Z,3.60
2022-10-04T14:54:07.699Z,3.00
2022-10-04T14:56:59.228Z,4.00
2022-10-04T14:59:36.603Z,7.00
2022-10-04T15:02:38.113Z,4.00
2022-10-04T15:05:26.947Z,4.00
2022-10-04T15:07:56.456Z,3.40
2022-10-04T15:10:25.851Z,4.00
2022-10-04T15:13:11.588Z,3.00
2022-10-04T15:15:56.956Z,5.00
2022-10-04T15:18:36.013Z,4.50
2022-10-04T15:21:06.874Z,4.00
2022-10-04T15:23:37.966Z,4.50
2022-10-04T15:26:09.930Z,4.00
2022-10-04T15:28:52.729Z,3.40
2022-10-04T15:31:24.946Z,4.00
2022-10-04T15:34:03.094Z,4.00
2022-10-04T15:36:41.268Z,4.80
2022-10-04T15:39:21.379Z,5.00
2022-10-04T15:41:51.650Z,4.00
2022-10-04T15:44:47.301Z,3.40
2022-10-04T15:47:21.090Z,2.75
2022-10-04T15:49:54.762Z,5.00
2022-10-04T15:52:51.170Z,5.60
2022-10-04T15:55:22.113Z,5.00
2022-10-04T15:58:03.517Z,4.00
2022-10-04T16:00:43.531Z,5.00
2022-10-04T16:03:19.940Z,3.00
2022-10-04T16:05:48.285Z,3.75
2022-10-04T16:08:40.341Z,3.00
2022-10-04T16:11:14.867Z,5.00
2022-10-04T16:13:46.642Z,4.00
2022-10-04T16:16:50.164Z,3.00
2022-10-04T16:19:30.233Z,3.00
2022-10-04T16:22:10.043Z,3.00
2022-10-04T16:24:51.482Z,4.00
2022-10-04T16:27:47.158Z,5.25
2022-10-04T16:30:26.962Z,5.00
2022-10-04T16:33:15.043Z,6.60
2022-10-04T16:35:45.367Z,5.00
2022-10-04T16:38:22.101Z,7.40
2022-10-04T16:41:01.225Z,9.00
2022-10-04T16:43:29.913Z,10.00
2022-10-04T16:46:10.688Z,10.00
2022-10-04T16:48:47.498Z,9.00
2022-10-04T16:51:39.193Z,9.00
2022-10-04T16:54:13.716Z,13.00
2022-10-04T16:57:16.244Z,12.50
2022-10-04T16:59:51.328Z,15.00
2022-10-04T17:02:59.297Z,13.33
2022-10-04T17:05:48.336Z,13.00
2022-10-04T17:08:25.844Z,16.25
2022-10-04T17:11:38.701Z,13.25
2022-10-04T17:14:22.375Z,12.00
2022-10-04T17:16:52.027Z,11.20
2022-10-04T17:19:29.181Z,11.00
2022-10-04T17:22:05.876Z,7.40
2022-10-04T17:24:43.944Z,8.60
2022-10-04T17:27:20.208Z,9.00
2022-10-04T17:29:58.966Z,7.00
2022-10-04T17:32:30.680Z,7.00
2022-10-04T17:35:09.104Z,8.00
2022-10-04T17:37:40.830Z,10.20
2022-10-04T17:40:21.888Z,14.75
2022-10-04T17:42:52.687Z,15.20
2022-10-04T17:45:27.234Z,15.00
2022-10-04T17:48:16.309Z,10.60
2022-10-04T17:51:05.332Z,7.40
2022-10-04T17:53:52.868Z,9.00
2022-10-04T17:56:29.736Z,7.00
2022-10-04T17:58:57.740Z,9.40
2022-10-04T18:01:27.842Z,11.60
2022-10-04T18:03:58.500Z,8.75
2022-10-04T18:06:31.375Z,9.00
2022-10-04T18:09:00.030Z,8.20
2022-10-04T18:11:35.734Z,9.60
2022-10-04T18:14:05.533Z,16.60
2022-10-04T18:16:42.421Z,17.00
2022-10-04T18:19:33.830Z,13.00
2022-10-04T18:22:05.334Z,13.00
2022-10-04T18:24:33.332Z,10.00
2022-10-04T18:27:05.065Z,12.75
2022-10-04T18:29:39.442Z,10.00
2022-10-04T18:32:17.669Z,9.00
2022-10-04T18:34:48.552Z,10.80
2022-10-04T18:37:20.854Z,9.25
2022-10-04T18:39:54.582Z,12.60
2022-10-04T18:42:27.714Z,17.50
2022-10-04T18:44:59.227Z,12.80
2022-10-04T18:47:33.332Z,10.00
2022-10-04T18:50:03.021Z,8.40
2022-10-04T18:52:44.039Z,8.75
2022-10-04T18:55:22.475Z,10.20
2022-10-04T18:58:13.961Z,8.00
2022-10-04T19:01:00.864Z,6.60
2022-10-04T19:03:31.358Z,7.75
2022-10-04T19:06:02.136Z,6.80
2022-10-04T19:08:36.215Z,6.20
2022-10-04T19:11:04.981Z,5.00
2022-10-04T19:13:39.345Z,10.00
2022-10-04T19:16:19.720Z,11.00
2022-10-04T19:18:53.203Z,8.00
2022-10-04T19:21:26.249Z,12.00
2022-10-04T19:24:07.282Z,8.00
2022-10-04T19:26:37.005Z,7.60
2022-10-04T19:29:13.524Z,7.00
2022-10-04T19:31:44.826Z,8.00
2022-10-04T19:34:14.732Z,7.60
2022-10-04T19:36:47.113Z,8.00
2022-10-04T19:39:28.438Z,6.50
2022-10-04T19:41:58.318Z,8.00
2022-10-04T19:44:38.701Z,7.00
2022-10-04T19:47:10.416Z,8.00
2022-10-04T19:49:42.428Z,6.00
2022-10-04T19:52:23.367Z,8.60
2022-10-04T19:54:54.150Z,7.00
2022-10-04T19:57:25.584Z,6.25
2022-10-04T19:59:54.959Z,7.40
2022-10-04T20:02:23.023Z,8.25
2022-10-04T20:04:52.254Z,6.00
2022-10-04T20:07:22.519Z,9.00
2022-10-04T20:09:57.819Z,8.00
2022-10-04T20:12:34.981Z,8.00
2022-10-04T20:15:26.587Z,9.00
2022-10-04T20:17:56.369Z,8.00
2022-10-04T20:21:03.439Z,9.75
2022-10-04T20:23:56.664Z,9.00
2022-10-04T20:26:54.905Z,9.00
2022-10-04T20:30:04.442Z,8.00
2022-10-04T20:32:59.151Z,7.50
2022-10-04T20:36:14.211Z,7.00
2022-10-04T20:39:00.556Z,8.60
2022-10-04T20:42:24.940Z,9.00
2022-10-04T20:44:56.620Z,11.80
2022-10-04T20:47:48.301Z,10.00
2022-10-04T20:50:49.290Z,11.00
2022-10-04T20:53:20.541Z,13.00
2022-10-04T20:55:48.926Z,15.00
2022-10-04T20:58:29.285Z,11.00
2022-10-04T21:00:58.598Z,13.40
2022-10-04T21:03:26.689Z,9.00
2022-10-04T21:06:04.044Z,11.00
2022-10-04T21:08:32.105Z,8.75
2022-10-04T21:11:21.326Z,9.80
2022-10-04T21:13:59.499Z,8.00
2022-10-04T21:16:41.989Z,7.00
2022-10-04T21:19:43.108Z,9.00
2022-10-04T21:22:31.665Z,6.00
2022-10-04T21:25:00.146Z,8.00
2022-10-04T21:27:29.136Z,8.00
2022-10-04T21:29:57.117Z,8.40
2022-10-04T21:32:25.966Z,8.00
2022-10-04T21:34:54.732Z,9.80
2022-10-04T21:37:24.304Z,9.00
2022-10-04T21:39:52.277Z,9.00
2022-10-04T21:42:20.380Z,8.00
2022-10-04T21:44:48.368Z,6.00
2022-10-04T21:47:16.414Z,13.00
2022-10-04T21:49:44.394Z,6.00
2022-10-04T21:52:12.371Z,7.00
2022-10-04T21:54:41.812Z,9.00
2022-10-04T21:57:09.771Z,6.00
2022-10-04T21:59:37.751Z,8.00
2022-10-04T22:02:06.982Z,9.00
2022-10-04T22:04:34.989Z,9.60
2022-10-04T22:07:03.003Z,8.00
2022-10-04T22:09:30.992Z,7.00
2022-10-04T22:12:00.314Z,8.00
2022-10-04T22:14:28.299Z,6.80
2022-10-04T22:16:56.297Z,7.20
2022-10-04T22:19:24.311Z,6.00
2022-10-04T22:21:52.278Z,7.25
2022-10-04T22:24:21.042Z,7.60
2022-10-04T22:26:49.452Z,8.20
2022-10-04T22:29:19.129Z,8.00
2022-10-04T22:31:47.973Z,6.00
2022-10-04T22:34:17.090Z,7.20
2022-10-04T22:36:46.083Z,7.00
2022-10-04T22:39:15.296Z,6.00
2022-10-04T22:41:43.935Z,9.00
2022-10-04T22:44:13.436Z,9.00
2022-10-04T22:46:44.404Z,10.00
2022-10-04T22:49:13.573Z,6.00
2022-10-04T22:51:42.212Z,6.80
2022-10-04T22:54:11.892Z,9.00
2022-10-04T22:56:40.170Z,8.00
2022-10-04T22:59:10.621Z,8.00
2022-10-04T23:01:39.531Z,8.00
2022-10-04T23:04:21.737Z,7.00
2022-10-04T23:06:49.775Z,9.00
2022-10-04T23:09:17.818Z,7.00
2022-10-04T23:11:45.778Z,7.00
2022-10-04T23:14:13.780Z,9.00
2022-10-04T23:16:43.020Z,8.00
2022-10-04T23:19:13.485Z,6.00
2022-10-04T23:21:42.545Z,7.00
2022-10-04T23:24:15.548Z,9.00
2022-10-04T23:26:44.623Z,14.20
2022-10-04T23:29:17.046Z,17.00
2022-10-04T23:31:46.357Z,10.50
2022-10-04T23:34:19.061Z,6.00
2022-10-04T23:36:47.462Z,8.00
2022-10-04T23:39:20.732Z,7.80
2022-10-04T23:41:48.720Z,8.00
2022-10-04T23:44:16.948Z,8.00
2022-10-04T23:46:45.276Z,7.00
2022-10-04T23:49:16.517Z,7.00
2022-10-04T23:51:44.785Z,7.00
2022-10-04T23:54:14.642Z,8.50
2022-10-04T23:56:42.858Z,5.50
2022-10-04T23:59:16.305Z,7.40
